Time;durP1;ratioP1;P1;durP2;ratioP2;P2;SDS_P1;SDS_P2;PMS_P1;PMS_P2;Temp;Humidity;BMP_temperature;BMP_pressure;BME280_temperature;BME280_humidity;BME280_pressure;Samples;Min_cycle;Max_cycle;Signal;HPM_P1;HPM_P2
2022/05/04 00:01:51;;;;;;;11.93;7.00;;;;;;;;;;5057235;28;20115;-76
2022/05/04 00:04:16;;;;;;;7.73;6.10;;;;;;;;;;5056822;28;20418;-76
2022/05/04 00:06:41;;;;;;;9.63;6.60;;;;;;;;;;5056899;28;20615;-76
2022/05/04 00:09:07;;;;;;;9.18;6.32;;;;;;;;;;5056532;28;20032;-76
2022/05/04 00:11:32;;;;;;;7.95;6.28;;;;;;;;;;5056318;28;20025;-76
2022/05/04 00:13:57;;;;;;;11.98;6.32;;;;;;;;;;5056385;28;20486;-75
2022/05/04 00:16:22;;;;;;;11.93;6.40;;;;;;;;;;5056370;28;20112;-76
2022/05/04 00:18:48;;;;;;;9.30;6.65;;;;;;;;;;5055099;28;20029;-75
2022/05/04 00:21:13;;;;;;;8.75;6.32;;;;;;;;;;5056586;28;20028;-75
2022/05/04 00:23:39;;;;;;;10.02;6.85;;;;;;;;;;5056603;28;20043;-75
2022/05/04 00:26:05;;;;;;;10.23;6.38;;;;;;;;;;5056247;28;20020;-75
2022/05/04 00:28:30;;;;;;;8.50;6.35;;;;;;;;;;5056198;28;20029;-75
2022/05/04 00:30:55;;;;;;;7.53;6.32;;;;;;;;;;5054622;28;20028;-76
2022/05/04 00:33:21;;;;;;;8.18;6.53;;;;;;;;;;5055959;28;20070;-75
2022/05/04 00:35:46;;;;;;;8.85;6.15;;;;;;;;;;5056347;28;20032;-75
2022/05/04 00:38:11;;;;;;;8.97;5.57;;;;;;;;;;5055947;28;20112;-76
2022/05/04 00:40:36;;;;;;;9.23;5.80;;;;;;;;;;5056150;28;20329;-75
2022/05/04 00:43:02;;;;;;;8.68;5.95;;;;;;;;;;5055940;28;20294;-76
2022/05/04 00:45:27;;;;;;;9.65;5.40;;;;;;;;;;5056086;28;20379;-76
2022/05/04 00:47:53;;;;;;;11.75;5.97;;;;;;;;;;5055811;28;20509;-76
2022/05/04 00:50:18;;;;;;;10.00;6.90;;;;;;;;;;5054280;28;20032;-75
2022/05/04 00:52:45;;;;;;;9.40;5.93;;;;;;;;;;5055284;28;20112;-75
2022/05/04 00:55:12;;;;;;;9.52;5.63;;;;;;;;;;5055676;28;20037;-75
2022/05/04 01:00:24;;;;;;;7.53;5.78;;;;;;;;;;5055952;28;20039;-75
2022/05/04 01:02:50;;;;;;;8.40;6.10;;;;;;;;;;5055884;28;20076;-75
2022/05/04 01:05:15;;;;;;;7.90;5.75;;;;;;;;;;5055473;28;20060;-74
2022/05/04 01:07:42;;;;;;;10.45;6.65;;;;;;;;;;5054491;28;20032;-75
2022/05/04 01:10:09;;;;;;;9.65;6.35;;;;;;;;;;5054017;28;20035;-75
2022/05/04 01:12:36;;;;;;;8.30;6.43;;;;;;;;;;5054078;28;20021;-75
2022/05/04 01:15:02;;;;;;;10.48;6.40;;;;;;;;;;5055158;28;20506;-75
2022/05/04 01:17:28;;;;;;;11.30;6.20;;;;;;;;;;5055199;28;20390;-75
2022/05/04 01:19:55;;;;;;;8.68;6.22;;;;;;;;;;5055180;28;20107;-75
2022/05/04 01:22:21;;;;;;;9.75;5.95;;;;;;;;;;5053926;28;20059;-76
2022/05/04 01:24:46;;;;;;;10.93;6.53;;;;;;;;;;5055139;28;20056;-77
2022/05/04 01:27:12;;;;;;;9.63;6.57;;;;;;;;;;5053865;28;20068;-76
2022/05/04 01:29:37;;;;;;;9.02;6.35;;;;;;;;;;5054970;28;20258;-76
2022/05/04 01:32:03;;;;;;;7.25;5.90;;;;;;;;;;5054014;28;20367;-76
2022/05/04 01:34:28;;;;;;;8.23;6.28;;;;;;;;;;5054920;28;20094;-76
2022/05/04 01:36:54;;;;;;;10.23;6.38;;;;;;;;;;5053655;28;20052;-76
2022/05/04 01:39:19;;;;;;;9.37;6.40;;;;;;;;;;5053513;28;20481;-76
2022/05/04 01:42:02;;;;;;;8.15;5.97;;;;;;;;;;5055026;28;20307;-76
2022/05/04 01:44:29;;;;;;;11.18;6.30;;;;;;;;;;5055138;28;20055;-76
2022/05/04 01:46:54;;;;;;;9.82;5.95;;;;;;;;;;5055013;28;20458;-76
2022/05/04 01:49:19;;;;;;;8.27;5.88;;;;;;;;;;5053268;28;20056;-76
2022/05/04 01:51:44;;;;;;;9.02;5.63;;;;;;;;;;5054808;28;20391;-76
2022/05/04 01:54:10;;;;;;;9.03;6.00;;;;;;;;;;5054546;28;20017;-76
2022/05/04 01:56:35;;;;;;;10.48;6.25;;;;;;;;;;5054530;28;20337;-76
2022/05/04 01:59:00;;;;;;;8.85;6.43;;;;;;;;;;5053277;28;20067;-76
2022/05/04 02:01:26;;;;;;;8.75;6.38;;;;;;;;;;5054579;28;20029;-76
2022/05/04 02:03:51;;;;;;;6.95;6.07;;;;;;;;;;5054478;28;20029;-76
2022/05/04 02:06:16;;;;;;;7.60;6.40;;;;;;;;;;5052967;28;20028;-76
2022/05/04 02:08:42;;;;;;;8.43;6.38;;;;;;;;;;5054602;28;20049;-76
2022/05/04 02:11:08;;;;;;;11.00;6.93;;;;;;;;;;5052895;28;20029;-76
2022/05/04 02:13:33;;;;;;;10.32;6.47;;;;;;;;;;5054080;28;20108;-75
2022/05/04 02:15:58;;;;;;;7.97;6.37;;;;;;;;;;5054230;28;20505;-75
2022/05/04 02:18:23;;;;;;;10.73;6.47;;;;;;;;;;5054412;28;20743;-75
2022/05/04 02:20:48;;;;;;;10.37;6.60;;;;;;;;;;5054219;28;20734;-76
2022/05/04 02:23:14;;;;;;;9.57;6.60;;;;;;;;;;5054289;28;20711;-76
2022/05/04 02:25:39;;;;;;;8.63;6.32;;;;;;;;;;5053946;28;20075;-76
2022/05/04 02:28:04;;;;;;;9.53;6.90;;;;;;;;;;5053889;28;20083;-75
2022/05/04 02:30:29;;;;;;;9.87;6.40;;;;;;;;;;5054060;28;20278;-76
2022/05/04 02:32:54;;;;;;;9.93;7.07;;;;;;;;;;5054039;28;20257;-76
2022/05/04 02:38:04;;;;;;;;;;;;;;;;;;5054154;28;20249;-75
2022/05/04 02:40:29;;;;;;;10.93;6.65;;;;;;;;;;5053587;28;20290;-75
2022/05/04 02:42:55;;;;;;;12.20;6.87;;;;;;;;;;5053954;28;20037;-76
2022/05/04 02:45:20;;;;;;;10.00;6.88;;;;;;;;;;5053844;28;20289;-76
2022/05/04 02:47:45;;;;;;;10.25;6.78;;;;;;;;;;5053785;28;20021;-75
2022/05/04 02:50:11;;;;;;;9.07;6.90;;;;;;;;;;5053554;28;20057;-76
2022/05/04 02:52:36;;;;;;;11.37;7.70;;;;;;;;;;5052189;28;20029;-75
2022/05/04 02:55:02;;;;;;;11.88;7.30;;;;;;;;;;5053630;28;20312;-75
2022/05/04 02:57:27;;;;;;;13.77;7.43;;;;;;;;;;5052066;28;20025;-75
2022/05/04 02:59:52;;;;;;;13.33;7.60;;;;;;;;;;5051987;28;20028;-75
2022/05/04 03:02:29;;;;;;;11.57;7.57;;;;;;;;;;5053860;28;20258;-75
2022/05/04 03:05:03;;;;;;;9.80;6.95;;;;;;;;;;5053668;28;20592;-75
2022/05/04 03:07:29;;;;;;;;;;;;;;;;;;5053762;28;20100;-75
2022/05/04 03:09:55;;;;;;;9.88;6.80;;;;;;;;;;5053380;28;20022;-76
2022/05/04 03:12:20;;;;;;;10.00;6.90;;;;;;;;;;5053127;28;20025;-74
2022/05/04 03:14:46;;;;;;;12.35;6.70;;;;;;;;;;5051839;28;20025;-75
2022/05/04 03:17:11;;;;;;;11.25;6.85;;;;;;;;;;5052550;28;20033;-76
2022/05/04 03:19:37;;;;;;;9.73;6.93;;;;;;;;;;5051805;28;20071;-75
2022/05/04 03:22:03;;;;;;;9.98;7.20;;;;;;;;;;5053119;28;20021;-76
2022/05/04 03:24:28;;;;;;;9.65;6.97;;;;;;;;;;5053318;28;20029;-75
2022/05/04 03:26:53;;;;;;;10.52;7.55;;;;;;;;;;5052952;28;20021;-75
2022/05/04 03:29:18;;;;;;;13.25;8.38;;;;;;;;;;5053064;28;20048;-75
2022/05/04 03:31:44;;;;;;;15.60;8.95;;;;;;;;;;5052895;28;20025;-76
2022/05/04 03:34:09;;;;;;;18.88;8.90;;;;;;;;;;5052918;28;20025;-76
2022/05/04 03:36:37;;;;;;;11.57;8.53;;;;;;;;;;5052995;28;20029;-75
2022/05/04 03:39:06;;;;;;;12.73;7.68;;;;;;;;;;5051615;28;20341;-75
2022/05/04 03:41:32;;;;;;;9.70;7.05;;;;;;;;;;5052768;28;20070;-74
2022/05/04 03:43:58;;;;;;;11.20;7.15;;;;;;;;;;5052834;28;20044;-75
2022/05/04 03:46:26;;;;;;;13.57;7.30;;;;;;;;;;5052850;28;20025;-76
2022/05/04 03:48:56;;;;;;;10.20;7.57;;;;;;;;;;5051551;28;20159;-75
2022/05/04 03:51:22;;;;;;;13.90;6.95;;;;;;;;;;5052768;28;20028;-76
2022/05/04 03:53:49;;;;;;;11.48;7.25;;;;;;;;;;5052805;28;20027;-75
2022/05/04 03:56:15;;;;;;;13.25;7.78;;;;;;;;;;5052636;28;20116;-76
2022/05/04 03:58:40;;;;;;;16.58;7.13;;;;;;;;;;5051407;28;20104;-75
2022/05/04 04:01:06;;;;;;;11.85;7.22;;;;;;;;;;5052545;28;20056;-75
2022/05/04 04:03:32;;;;;;;9.13;6.93;;;;;;;;;;5051755;28;20505;-75
2022/05/04 04:05:58;;;;;;;10.68;7.22;;;;;;;;;;5052895;28;20031;-76
2022/05/04 04:08:23;;;;;;;8.63;6.88;;;;;;;;;;5052629;28;20107;-75
2022/05/04 04:10:49;;;;;;;11.63;7.15;;;;;;;;;;5052529;28;20021;-75
2022/05/04 04:13:15;;;;;;;11.07;7.28;;;;;;;;;;5051126;28;20024;-75
2022/05/04 04:15:40;;;;;;;12.18;6.95;;;;;;;;;;5052790;28;20025;-75
2022/05/04 04:18:06;;;;;;;11.23;6.85;;;;;;;;;;5052784;28;20204;-75
2022/05/04 04:23:15;;;;;;;16.60;7.57;;;;;;;;;;5052533;28;20079;-76
2022/05/04 04:25:40;;;;;;;11.03;6.73;;;;;;;;;;5052458;28;20041;-76
2022/05/04 04:28:05;;;;;;;11.10;7.15;;;;;;;;;;5052824;28;20311;-75
2022/05/04 04:30:30;;;;;;;10.15;7.05;;;;;;;;;;5056118;28;20103;-75
2022/05/04 04:32:56;;;;;;;10.85;6.97;;;;;;;;;;5056124;28;20051;-74
2022/05/04 04:35:21;;;;;;;11.05;6.88;;;;;;;;;;5055993;28;20021;-77
2022/05/04 04:37:46;;;;;;;12.77;7.32;;;;;;;;;;5055915;28;20076;-76
2022/05/04 04:40:12;;;;;;;13.10;6.75;;;;;;;;;;5055877;28;20035;-76
2022/05/04 04:42:37;;;;;;;11.13;7.03;;;;;;;;;;5055844;28;20427;-76
2022/05/04 04:45:03;;;;;;;11.93;7.38;;;;;;;;;;5055745;28;20169;-76
2022/05/04 04:47:29;;;;;;;9.60;6.90;;;;;;;;;;5056050;28;20094;-76
2022/05/04 04:49:59;;;;;;;10.50;6.90;;;;;;;;;;5055730;28;20028;-76
2022/05/04 04:52:24;;;;;;;12.07;6.93;;;;;;;;;;5055724;28;20508;-76
2022/05/04 04:54:50;;;;;;;9.75;6.35;;;;;;;;;;5055565;28;20036;-76
2022/05/04 04:57:16;;;;;;;9.73;6.50;;;;;;;;;;5055728;28;20032;-76
2022/05/04 04:59:42;;;;;;;8.50;6.53;;;;;;;;;;5055554;28;20078;-74
2022/05/04 05:02:07;;;;;;;12.73;6.80;;;;;;;;;;5055607;28;20025;-75
2022/05/04 05:04:32;;;;;;;8.53;6.70;;;;;;;;;;5055484;28;20021;-76
2022/05/04 05:06:57;;;;;;;14.03;6.83;;;;;;;;;;5054164;28;20357;-75
2022/05/04 05:09:23;;;;;;;9.93;6.70;;;;;;;;;;5055578;28;20345;-75
2022/05/04 05:11:48;;;;;;;15.68;6.75;;;;;;;;;;5053946;28;20377;-76
2022/05/04 05:16:57;;;;;;;9.60;6.95;;;;;;;;;;5055267;28;20261;-77
2022/05/04 05:19:22;;;;;;;8.73;6.60;;;;;;;;;;5055213;28;20029;-76
2022/05/04 05:21:47;;;;;;;11.32;6.97;;;;;;;;;;5053850;28;20497;-76
2022/05/04 05:24:12;;;;;;;9.23;6.97;;;;;;;;;;5055358;28;20390;-76
2022/05/04 05:26:38;;;;;;;10.30;7.10;;;;;;;;;;5054924;28;20635;-76
2022/05/04 05:29:03;;;;;;;11.07;6.73;;;;;;;;;;5055072;28;20250;-76
2022/05/04 05:31:28;;;;;;;11.13;6.72;;;;;;;;;;5055053;28;20439;-76
2022/05/04 05:33:53;;;;;;;9.20;6.00;;;;;;;;;;5054867;28;20036;-76
2022/05/04 05:36:19;;;;;;;8.60;6.28;;;;;;;;;;5055217;28;20036;-75
2022/05/04 05:38:44;;;;;;;11.35;6.50;;;;;;;;;;5054770;28;20075;-76
2022/05/04 05:41:09;;;;;;;9.03;6.50;;;;;;;;;;5054327;28;20025;-75
2022/05/04 05:43:34;;;;;;;9.90;6.50;;;;;;;;;;5054899;28;20258;-75
2022/05/04 05:46:00;;;;;;;13.07;6.27;;;;;;;;;;5054576;28;20253;-76
2022/05/04 05:48:25;;;;;;;10.20;6.25;;;;;;;;;;5054732;28;20266;-76
2022/05/04 05:50:51;;;;;;;9.80;6.43;;;;;;;;;;5053215;28;20029;-76
2022/05/04 05:53:16;;;;;;;9.18;6.65;;;;;;;;;;5055077;28;20028;-76
2022/05/04 05:55:42;;;;;;;17.17;6.32;;;;;;;;;;5053700;28;20471;-76
2022/05/04 05:58:07;;;;;;;8.48;6.00;;;;;;;;;;5054721;28;20029;-75
2022/05/04 06:00:32;;;;;;;8.07;5.85;;;;;;;;;;5053001;28;20517;-75
2022/05/04 06:02:58;;;;;;;12.75;6.30;;;;;;;;;;5054504;28;20112;-75
2022/05/04 06:05:23;;;;;;;8.65;6.20;;;;;;;;;;5054141;28;20051;-75
2022/05/04 06:07:48;;;;;;;9.77;5.95;;;;;;;;;;5052878;28;20036;-75
2022/05/04 06:10:14;;;;;;;10.15;6.50;;;;;;;;;;5054139;28;20560;-75
2022/05/04 06:12:40;;;;;;;13.20;6.38;;;;;;;;;;5054068;28;20496;-75
2022/05/04 06:15:09;;;;;;;9.48;6.50;;;;;;;;;;5053929;28;20037;-75
2022/05/04 06:17:35;;;;;;;10.15;5.85;;;;;;;;;;5052550;28;20025;-75
2022/05/04 06:20:00;;;;;;;10.43;6.80;;;;;;;;;;5053730;28;20028;-75
2022/05/04 06:22:26;;;;;;;8.75;6.20;;;;;;;;;;5054004;28;20111;-76
2022/05/04 06:24:51;;;;;;;8.85;6.30;;;;;;;;;;5054003;28;20077;-76
2022/05/04 06:27:16;;;;;;;8.50;6.13;;;;;;;;;;5054265;28;20082;-78
2022/05/04 06:35:09;;;;;;;13.02;6.70;;;;;;;;;;5053666;28;20040;-76
2022/05/04 06:37:34;;;;;;;15.15;7.15;;;;;;;;;;5053850;28;20036;-77
2022/05/04 06:39:59;;;;;;;8.80;6.27;;;;;;;;;;5053442;28;20109;-77
2022/05/04 06:42:25;;;;;;;9.93;5.97;;;;;;;;;;5053546;28;20261;-74
2022/05/04 06:44:50;;;;;;;11.57;6.30;;;;;;;;;;5052229;28;20016;-76
2022/05/04 06:47:15;;;;;;;13.53;6.20;;;;;;;;;;5053940;28;20482;-76
2022/05/04 06:49:41;;;;;;;10.30;5.53;;;;;;;;;;5053235;28;20253;-75
2022/05/04 06:52:07;;;;;;;13.40;5.38;;;;;;;;;;5052936;28;20071;-76
2022/05/04 06:54:32;;;;;;;12.35;5.93;;;;;;;;;;5051958;28;20029;-75
2022/05/04 06:56:57;;;;;;;11.45;6.07;;;;;;;;;;5053278;28;20025;-76
2022/05/04 06:59:23;;;;;;;8.32;5.65;;;;;;;;;;5053189;28;20063;-75
2022/05/04 07:01:48;;;;;;;11.03;5.50;;;;;;;;;;5053222;28;20033;-76
2022/05/04 07:04:14;;;;;;;10.98;5.70;;;;;;;;;;5053262;28;20269;-76
2022/05/04 07:06:39;;;;;;;9.00;5.57;;;;;;;;;;5053230;28;20031;-76
2022/05/04 07:09:04;;;;;;;11.13;5.37;;;;;;;;;;5053311;28;20029;-78
2022/05/04 07:11:30;;;;;;;8.83;5.33;;;;;;;;;;5053286;28;20278;-76
2022/05/04 07:13:55;;;;;;;8.55;5.30;;;;;;;;;;5053262;28;20274;-76
2022/05/04 07:16:20;;;;;;;7.03;5.10;;;;;;;;;;5053197;28;20082;-76
2022/05/04 07:18:45;;;;;;;9.30;5.13;;;;;;;;;;5052955;28;20303;-77
2022/05/04 07:21:10;;;;;;;7.10;5.30;;;;;;;;;;5052912;28;20289;-77
2022/05/04 07:23:36;;;;;;;9.03;5.27;;;;;;;;;;5052919;28;20339;-75
2022/05/04 07:26:01;;;;;;;9.93;5.33;;;;;;;;;;5053232;28;20266;-75
2022/05/04 07:28:26;;;;;;;8.07;5.18;;;;;;;;;;5053254;28;20261;-76
2022/05/04 07:30:52;;;;;;;10.33;5.17;;;;;;;;;;5052697;28;20027;-77
2022/05/04 07:33:17;;;;;;;7.93;5.32;;;;;;;;;;5052952;28;20341;-76
2022/05/04 07:35:42;;;;;;;8.93;5.70;;;;;;;;;;5053480;28;20445;-76
2022/05/04 07:38:08;;;;;;;11.63;6.00;;;;;;;;;;5052734;28;20032;-76
2022/05/04 07:43:17;;;;;;;7.25;5.60;;;;;;;;;;5052808;28;20031;-76
2022/05/04 07:45:42;;;;;;;10.27;5.43;;;;;;;;;;5052891;28;20108;-76
2022/05/04 07:48:07;;;;;;;11.88;5.47;;;;;;;;;;5051695;28;20316;-76
2022/05/04 07:50:33;;;;;;;8.73;5.55;;;;;;;;;;5051380;28;20029;-76
2022/05/04 07:52:58;;;;;;;12.60;5.28;;;;;;;;;;5051609;28;20082;-76
2022/05/04 07:55:24;;;;;;;9.05;4.82;;;;;;;;;;5052928;28;20394;-75
2022/05/04 07:57:49;;;;;;;7.53;4.95;;;;;;;;;;5051498;28;20115;-75
2022/05/04 08:05:43;;;;;;;7.00;4.32;;;;;;;;;;5057179;28;20083;-75
2022/05/04 08:08:08;;;;;;;7.53;4.57;;;;;;;;;;5055174;28;20444;-75
2022/05/04 08:10:34;;;;;;;10.98;3.92;;;;;;;;;;5056305;28;20027;-76
2022/05/04 08:12:59;;;;;;;8.55;3.70;;;;;;;;;;5056859;28;20074;-76
2022/05/04 08:15:25;;;;;;;8.20;4.00;;;;;;;;;;5056419;28;20036;-74
2022/05/04 08:17:50;;;;;;;10.38;3.83;;;;;;;;;;5056530;28;20028;-77
2022/05/04 08:20:15;;;;;;;10.13;3.92;;;;;;;;;;5056400;28;20032;-77
2022/05/04 08:22:41;;;;;;;4.73;4.00;;;;;;;;;;5056326;28;20056;-75
2022/05/04 08:25:06;;;;;;;8.70;4.40;;;;;;;;;;5055000;28;20247;-75
2022/05/04 08:27:32;;;;;;;15.77;4.40;;;;;;;;;;5054893;28;20130;-76
2022/05/04 08:30:00;;;;;;;7.50;4.13;;;;;;;;;;5056013;28;20103;-75
2022/05/04 08:32:29;;;;;;;9.13;4.35;;;;;;;;;;5056143;28;20090;-76
2022/05/04 08:34:58;;;;;;;10.60;4.57;;;;;;;;;;5056279;28;20070;-76
2022/05/04 08:37:23;;;;;;;10.60;3.92;;;;;;;;;;5056227;28;20027;-76
2022/05/04 08:39:49;;;;;;;4.82;3.85;;;;;;;;;;5054644;28;20123;-76
2022/05/04 08:42:15;;;;;;;5.53;3.70;;;;;;;;;;5056184;28;20028;-75
2022/05/04 08:44:40;;;;;;;5.97;3.78;;;;;;;;;;5055841;28;20039;-76
2022/05/04 08:47:12;;;;;;;8.45;4.03;;;;;;;;;;5056045;28;20090;-76
2022/05/04 08:49:39;;;;;;;10.43;3.72;;;;;;;;;;5054494;28;20495;-77
2022/05/04 08:52:06;;;;;;;4.10;3.33;;;;;;;;;;5054558;28;20120;-75
2022/05/04 08:54:31;;;;;;;5.15;3.60;;;;;;;;;;5054523;28;20147;-75
2022/05/04 08:56:58;;;;;;;6.07;3.15;;;;;;;;;;5056157;28;20581;-74
2022/05/04 08:59:23;;;;;;;4.93;3.30;;;;;;;;;;5056624;28;20109;-75
2022/05/04 09:01:48;;;;;;;6.28;2.90;;;;;;;;;;5054469;28;20059;-75
2022/05/04 09:04:14;;;;;;;3.70;2.83;;;;;;;;;;5055653;28;20033;-75
2022/05/04 09:06:45;;;;;;;7.30;3.13;;;;;;;;;;5056163;28;20273;-76
2022/05/04 09:09:11;;;;;;;8.98;2.97;;;;;;;;;;5055831;28;20261;-76
2022/05/04 09:11:38;;;;;;;4.72;3.10;;;;;;;;;;5055344;28;20032;-76
2022/05/04 09:14:20;;;;;;;6.30;2.55;;;;;;;;;;5054277;28;20036;-76
2022/05/04 09:16:46;;;;;;;4.15;2.85;;;;;;;;;;5055250;28;20397;-76
2022/05/04 09:19:14;;;;;;;6.38;3.35;;;;;;;;;;5054132;28;20025;-76
2022/05/04 09:21:39;;;;;;;6.80;3.20;;;;;;;;;;5055216;28;20056;-76
2022/05/04 09:24:05;;;;;;;6.10;3.47;;;;;;;;;;5053958;28;20134;-76
2022/05/04 09:26:32;;;;;;;4.18;2.92;;;;;;;;;;5053985;28;20102;-77
2022/05/04 09:29:00;;;;;;;5.63;2.95;;;;;;;;;;5055163;28;20108;-76
2022/05/04 09:31:27;;;;;;;8.75;3.25;;;;;;;;;;5055242;28;20120;-75
2022/05/04 09:33:57;;;;;;;6.88;3.05;;;;;;;;;;5054984;28;20083;-75
2022/05/04 09:36:31;;;;;;;5.45;3.22;;;;;;;;;;5054092;28;20533;-75
2022/05/04 09:47:18;;;;;;;4.80;3.40;;;;;;;;;;5055314;28;20043;-76
2022/05/04 09:49:44;;;;;;;6.78;3.92;;;;;;;;;;5054758;28;20028;-77
2022/05/04 09:52:09;;;;;;;5.32;3.33;;;;;;;;;;5054467;28;20082;-76
2022/05/04 09:54:34;;;;;;;4.60;3.33;;;;;;;;;;5053291;28;20025;-77
2022/05/04 09:57:03;;;;;;;6.57;3.10;;;;;;;;;;5053653;28;20025;-76
2022/05/04 09:59:30;;;;;;;7.03;3.63;;;;;;;;;;5055298;28;20335;-76
2022/05/04 10:01:56;;;;;;;5.88;3.38;;;;;;;;;;5054248;28;20437;-76
2022/05/04 10:04:23;;;;;;;9.45;3.63;;;;;;;;;;5053506;28;20028;-75
2022/05/04 10:06:49;;;;;;;5.07;3.60;;;;;;;;;;5053549;28;20025;-77
2022/05/04 10:09:14;;;;;;;6.30;3.78;;;;;;;;;;5054659;28;20529;-76
2022/05/04 10:11:40;;;;;;;7.70;3.70;;;;;;;;;;5054581;28;20025;-76
2022/05/04 10:14:10;;;;;;;7.38;3.67;;;;;;;;;;5054291;28;20479;-76
2022/05/04 10:17:11;;;;;;;7.30;3.72;;;;;;;;;;5054635;28;20036;-76
2022/05/04 10:19:44;;;;;;;6.28;3.30;;;;;;;;;;5054647;28;20050;-76
2022/05/04 10:22:14;;;;;;;7.18;3.70;;;;;;;;;;5055155;28;20059;-76
2022/05/04 10:24:41;;;;;;;9.38;3.92;;;;;;;;;;5054883;28;20055;-77
2022/05/04 10:27:21;;;;;;;9.13;3.97;;;;;;;;;;5054147;28;20032;-77
2022/05/04 10:32:44;;;;;;;7.00;4.00;;;;;;;;;;5054554;28;20060;-76
2022/05/04 10:35:38;;;;;;;7.22;3.60;;;;;;;;;;5052596;28;20017;-75
2022/05/04 10:38:13;;;;;;;5.25;3.60;;;;;;;;;;5054005;28;20355;-75
2022/05/04 10:40:53;;;;;;;5.03;3.40;;;;;;;;;;5053932;28;20027;-76
2022/05/04 10:43:41;;;;;;;6.32;3.50;;;;;;;;;;5053653;28;20445;-77
2022/05/04 10:46:17;;;;;;;7.05;3.40;;;;;;;;;;5052377;28;20135;-76
2022/05/04 10:48:50;;;;;;;4.82;3.20;;;;;;;;;;5053655;28;20029;-76
2022/05/04 10:51:21;;;;;;;6.00;3.42;;;;;;;;;;5052126;28;20033;-76
2022/05/04 10:53:49;;;;;;;6.85;3.10;;;;;;;;;;5052323;28;20031;-76
2022/05/04 10:56:22;;;;;;;5.88;3.80;;;;;;;;;;5053674;28;20028;-76
2022/05/04 10:58:50;;;;;;;7.25;3.65;;;;;;;;;;5053368;28;20025;-76
2022/05/04 11:01:29;;;;;;;4.72;3.70;;;;;;;;;;5053419;28;20081;-76
2022/05/04 11:04:05;;;;;;;5.65;3.58;;;;;;;;;;5052040;28;20382;-75
2022/05/04 11:06:33;;;;;;;5.45;3.47;;;;;;;;;;5053565;28;20081;-77
2022/05/04 11:09:08;;;;;;;10.55;3.83;;;;;;;;;;5053655;28;20064;-75
2022/05/04 11:11:34;;;;;;;12.57;3.58;;;;;;;;;;5053259;28;20423;-76
2022/05/04 11:13:59;;;;;;;5.80;3.70;;;;;;;;;;5051852;28;20470;-77
2022/05/04 11:16:28;;;;;;;11.23;3.58;;;;;;;;;;5053331;28;20043;-76
2022/05/04 11:18:53;;;;;;;5.10;3.33;;;;;;;;;;5053098;28;20099;-76
2022/05/04 11:21:19;;;;;;;6.93;3.83;;;;;;;;;;5051685;28;20094;-77
2022/05/04 11:23:46;;;;;;;5.57;3.80;;;;;;;;;;5051716;28;20512;-76
2022/05/04 11:26:26;;;;;;;6.55;3.88;;;;;;;;;;5052878;28;20024;-76
2022/05/04 11:28:53;;;;;;;7.28;3.10;;;;;;;;;;5051593;28;20020;-76
2022/05/04 11:31:20;;;;;;;6.22;3.60;;;;;;;;;;5052743;28;20033;-77
2022/05/04 11:33:47;;;;;;;7.13;3.60;;;;;;;;;;5051506;28;20062;-77
2022/05/04 11:36:17;;;;;;;5.82;3.53;;;;;;;;;;5053040;28;20033;-76
2022/05/04 11:38:45;;;;;;;4.60;3.38;;;;;;;;;;5059219;28;20035;-76
2022/05/04 11:41:11;;;;;;;5.40;3.33;;;;;;;;;;5059338;28;20016;-76
2022/05/04 11:43:37;;;;;;;6.18;3.08;;;;;;;;;;5058184;28;20031;-76
2022/05/04 11:46:06;;;;;;;4.60;3.35;;;;;;;;;;5059426;28;20474;-76
2022/05/04 11:48:33;;;;;;;9.50;3.20;;;;;;;;;;5059556;28;20371;-76
2022/05/04 11:50:58;;;;;;;11.55;3.35;;;;;;;;;;5059496;28;20439;-77
2022/05/04 11:53:24;;;;;;;4.75;3.30;;;;;;;;;;5060211;28;20072;-78
2022/05/04 11:55:49;;;;;;;5.85;3.00;;;;;;;;;;5060164;28;20382;-76
2022/05/04 11:58:14;;;;;;;5.40;3.30;;;;;;;;;;5059673;28;20032;-77
2022/05/04 12:00:41;;;;;;;5.20;3.50;;;;;;;;;;5060066;28;20258;-77
2022/05/04 12:03:07;;;;;;;6.63;3.50;;;;;;;;;;5058810;28;20260;-77
2022/05/04 12:05:34;;;;;;;3.97;3.25;;;;;;;;;;5060470;28;20025;-77
2022/05/04 12:08:00;;;;;;;10.45;3.20;;;;;;;;;;5060627;28;20032;-77
2022/05/04 12:10:26;;;;;;;4.43;2.78;;;;;;;;;;5059134;28;20021;-77
2022/05/04 12:12:52;;;;;;;4.07;2.95;;;;;;;;;;5059857;28;20394;-77
2022/05/04 12:15:22;;;;;;;4.85;3.10;;;;;;;;;;5060381;28;20447;-79
2022/05/04 12:17:47;;;;;;;7.53;3.40;;;;;;;;;;5058899;28;20040;-77
2022/05/04 12:20:12;;;;;;;4.10;3.23;;;;;;;;;;5058839;28;20032;-77
2022/05/04 12:22:37;;;;;;;6.73;3.30;;;;;;;;;;5059202;28;20353;-77
2022/05/04 12:25:06;;;;;;;7.57;2.92;;;;;;;;;;5060254;28;20293;-77
2022/05/04 12:27:34;;;;;;;4.78;2.90;;;;;;;;;;5058925;28;20049;-77
2022/05/04 12:35:31;;;;;;;5.22;3.40;;;;;;;;;;5059692;28;20035;-75
2022/05/04 12:37:58;;;;;;;5.35;3.25;;;;;;;;;;5059408;28;20402;-76
2022/05/04 12:40:26;;;;;;;5.35;3.15;;;;;;;;;;5059217;28;20500;-76
2022/05/04 12:42:51;;;;;;;3.80;3.13;;;;;;;;;;5059238;28;20108;-77
2022/05/04 12:45:17;;;;;;;5.03;3.03;;;;;;;;;;5059292;28;20052;-77
2022/05/04 12:47:43;;;;;;;4.32;3.22;;;;;;;;;;5058952;28;20025;-77
2022/05/04 12:50:08;;;;;;;4.68;3.20;;;;;;;;;;5054936;28;20094;-77
2022/05/04 12:52:37;;;;;;;4.60;3.33;;;;;;;;;;5056137;28;20029;-77
2022/05/04 12:55:04;;;;;;;5.60;3.20;;;;;;;;;;5055710;28;20095;-77
2022/05/04 12:57:30;;;;;;;6.43;2.90;;;;;;;;;;5055563;28;20032;-77
2022/05/04 12:59:55;;;;;;;5.20;3.30;;;;;;;;;;5055485;28;20107;-77
2022/05/04 13:02:20;;;;;;;6.07;3.27;;;;;;;;;;5055904;28;20033;-77
2022/05/04 13:04:45;;;;;;;6.22;3.00;;;;;;;;;;5055582;28;20266;-77
2022/05/04 13:07:11;;;;;;;5.10;2.97;;;;;;;;;;5055914;28;20078;-77
2022/05/04 13:09:36;;;;;;;4.15;3.20;;;;;;;;;;5055729;28;20346;-77
2022/05/04 13:12:02;;;;;;;5.72;3.20;;;;;;;;;;5055035;28;20490;-77
2022/05/04 13:14:27;;;;;;;9.98;3.00;;;;;;;;;;5055086;28;20025;-76
2022/05/04 13:16:52;;;;;;;6.50;3.17;;;;;;;;;;5055185;28;20096;-78
2022/05/04 13:19:18;;;;;;;4.53;3.07;;;;;;;;;;5053947;28;20028;-76
2022/05/04 13:21:43;;;;;;;4.28;3.10;;;;;;;;;;5054108;28;20798;-77
2022/05/04 13:24:09;;;;;;;4.03;3.05;;;;;;;;;;5055204;28;20425;-75
2022/05/04 13:26:34;;;;;;;6.78;3.28;;;;;;;;;;5055140;28;20062;-75
2022/05/04 13:29:00;;;;;;;4.55;2.90;;;;;;;;;;5053534;28;20394;-77
2022/05/04 13:31:25;;;;;;;6.90;3.03;;;;;;;;;;5054790;28;20079;-77
2022/05/04 13:33:50;;;;;;;5.03;3.33;;;;;;;;;;5054950;28;20056;-77
2022/05/04 13:36:16;;;;;;;6.33;2.93;;;;;;;;;;5055168;28;20107;-78
2022/05/04 13:38:41;;;;;;;6.45;3.13;;;;;;;;;;5055299;28;20297;-77
2022/05/04 13:41:06;;;;;;;6.22;3.40;;;;;;;;;;5054656;28;20074;-77
2022/05/04 13:43:32;;;;;;;7.80;3.13;;;;;;;;;;5055289;28;20025;-77
2022/05/04 13:45:57;;;;;;;4.93;3.28;;;;;;;;;;5054675;28;20052;-75
2022/05/04 13:48:22;;;;;;;8.60;2.78;;;;;;;;;;5054569;28;20025;-76
2022/05/04 13:53:31;;;;;;;6.10;3.22;;;;;;;;;;5055083;28;20659;-77
2022/05/04 13:55:57;;;;;;;4.00;2.63;;;;;;;;;;5054290;28;20037;-76
2022/05/04 13:58:23;;;;;;;5.10;3.15;;;;;;;;;;5053017;28;20769;-77
2022/05/04 14:00:49;;;;;;;6.70;3.20;;;;;;;;;;5053980;28;20082;-77
2022/05/04 14:03:15;;;;;;;5.57;3.22;;;;;;;;;;5053063;28;20025;-77
2022/05/04 14:05:41;;;;;;;5.38;3.40;;;;;;;;;;5054574;28;20086;-77
2022/05/04 14:08:07;;;;;;;3.58;2.75;;;;;;;;;;5053431;28;20065;-77
2022/05/04 14:10:32;;;;;;;5.50;3.20;;;;;;;;;;5054210;28;20104;-77
2022/05/04 14:12:58;;;;;;;7.22;2.83;;;;;;;;;;5052824;28;20016;-77
2022/05/04 14:15:24;;;;;;;6.32;3.00;;;;;;;;;;5054051;28;20490;-77
2022/05/04 14:17:50;;;;;;;5.07;3.10;;;;;;;;;;5054292;28;20020;-77
2022/05/04 14:20:15;;;;;;;7.77;3.20;;;;;;;;;;5054144;28;20035;-77
2022/05/04 14:22:40;;;;;;;7.38;2.92;;;;;;;;;;5054022;28;20286;-77
2022/05/04 14:25:06;;;;;;;6.78;3.25;;;;;;;;;;5052607;28;20055;-77
2022/05/04 14:27:31;;;;;;;4.78;3.03;;;;;;;;;;5052648;28;20029;-77
2022/05/04 14:29:57;;;;;;;5.17;2.90;;;;;;;;;;5053736;28;20024;-77
2022/05/04 14:32:23;;;;;;;3.53;2.80;;;;;;;;;;5053718;28;20282;-76
2022/05/04 14:34:48;;;;;;;4.30;2.70;;;;;;;;;;5054201;28;20486;-76
2022/05/04 14:37:13;;;;;;;5.50;2.80;;;;;;;;;;5053769;28;20474;-77
2022/05/04 14:39:38;;;;;;;4.30;3.00;;;;;;;;;;5052143;28;20767;-76
2022/05/04 14:42:04;;;;;;;5.07;2.93;;;;;;;;;;5053676;28;20254;-76
2022/05/04 14:44:31;;;;;;;4.45;3.00;;;;;;;;;;5053632;28;20265;-76
2022/05/04 14:46:57;;;;;;;4.82;3.00;;;;;;;;;;5052280;28;20430;-77
2022/05/04 14:49:23;;;;;;;5.88;3.00;;;;;;;;;;5053415;28;20063;-75
2022/05/04 14:51:49;;;;;;;7.30;2.75;;;;;;;;;;5053968;28;20196;-77
2022/05/04 14:54:14;;;;;;;5.07;2.38;;;;;;;;;;5053673;28;20025;-77
2022/05/04 14:56:39;;;;;;;7.18;3.33;;;;;;;;;;5053687;28;20031;-77
2022/05/04 14:59:04;;;;;;;7.13;3.00;;;;;;;;;;5054505;28;20137;-76
2022/05/04 15:01:30;;;;;;;5.83;3.03;;;;;;;;;;5053143;28;20269;-77
2022/05/04 15:06:38;;;;;;;4.15;2.78;;;;;;;;;;5053624;28;20040;-77
2022/05/04 15:09:04;;;;;;;7.73;3.10;;;;;;;;;;5053515;28;20398;-77
2022/05/04 15:11:29;;;;;;;7.97;2.80;;;;;;;;;;5052613;28;20376;-77
2022/05/04 15:13:54;;;;;;;4.07;2.72;;;;;;;;;;5052543;28;20262;-77
2022/05/04 15:16:25;;;;;;;5.60;2.67;;;;;;;;;;5052943;28;20494;-77
2022/05/04 15:18:51;;;;;;;6.70;3.17;;;;;;;;;;5053006;28;20289;-77
2022/05/04 15:21:19;;;;;;;4.90;2.70;;;;;;;;;;5053535;28;20091;-77
2022/05/04 15:23:45;;;;;;;3.28;2.67;;;;;;;;;;5052868;28;20029;-77